createdAt,value
2018-01-14T00:00:39.973Z,96194.53
2018-01-14T00:03:09.194Z,96203.05
2018-01-14T00:05:37.856Z,96204.45
2018-01-14T00:08:06.109Z,96202.94
2018-01-14T00:10:34.988Z,96210.52
2018-01-14T00:13:02.771Z,96204.88
2018-01-14T00:15:31.518Z,96207.60
2018-01-14T00:18:00.430Z,96208.30
2018-01-14T00:20:28.212Z,96207.87
2018-01-14T00:22:55.941Z,96205.95
2018-01-14T00:25:23.576Z,96200.20
2018-01-14T00:27:51.250Z,96201.73
2018-01-14T00:30:20.567Z,96197.02
2018-01-14T00:32:48.653Z,96201.73
2018-01-14T00:35:16.248Z,96200.45
2018-01-14T00:37:44.201Z,96209.34
2018-01-14T00:40:12.246Z,96207.77
2018-01-14T00:42:40.635Z,96206.40
2018-01-14T00:45:08.324Z,96208.38
2018-01-14T00:47:35.875Z,96201.66
2018-01-14T00:50:03.434Z,96197.98
2018-01-14T00:52:32.666Z,96205.23
2018-01-14T00:55:00.545Z,96202.03
2018-01-14T00:57:28.118Z,96211.13
2018-01-14T00:59:55.781Z,96213.83
2018-01-14T01:02:24.257Z,96203.01
2018-01-14T01:04:51.812Z,96201.66
2018-01-14T01:07:19.674Z,96210.50
2018-01-14T01:09:47.401Z,96211.41
2018-01-14T01:12:15.028Z,96212.48
2018-01-14T01:14:42.723Z,96218.00
2018-01-14T01:17:10.584Z,96218.92
2018-01-14T01:19:38.630Z,96213.04
2018-01-14T01:22:06.324Z,96218.16
2018-01-14T01:24:34.034Z,96217.34
2018-01-14T01:27:01.672Z,96216.35
2018-01-14T01:29:29.404Z,96216.78
2018-01-14T01:31:57.133Z,96219.50
2018-01-14T01:34:25.112Z,96219.26
2018-01-14T01:36:52.902Z,96216.14
2018-01-14T01:39:20.622Z,96203.07
2018-01-14T01:41:48.287Z,96197.22
2018-01-14T01:44:15.939Z,96208.88
2018-01-14T01:46:44.633Z,96204.47
2018-01-14T01:49:12.480Z,96199.58
2018-01-14T01:51:40.113Z,96202.36
2018-01-14T01:54:07.834Z,96192.09
2018-01-14T01:56:36.062Z,96197.95
2018-01-14T01:59:03.655Z,96195.26
2018-01-14T02:01:31.446Z,96194.41
2018-01-14T02:03:59.799Z,96196.09
2018-01-14T02:06:27.370Z,96198.80
2018-01-14T02:08:55.238Z,96193.17
2018-01-14T02:11:23.204Z,96196.72
2018-01-14T02:13:50.867Z,96202.10
2018-01-14T02:16:19.173Z,96201.80
2018-01-14T02:18:46.893Z,96198.83
2018-01-14T02:21:14.441Z,96194.55
2018-01-14T02:23:42.184Z,96196.58
2018-01-14T02:26:10.714Z,96202.66
2018-01-14T02:28:38.287Z,96204.86
2018-01-14T02:31:06.931Z,96200.03
2018-01-14T02:33:34.605Z,96195.39
2018-01-14T02:36:02.148Z,96193.55
2018-01-14T02:38:29.813Z,96190.31
2018-01-14T02:40:57.839Z,96199.39
2018-01-14T02:43:25.824Z,96197.42
2018-01-14T02:45:54.057Z,96195.95
2018-01-14T02:48:21.859Z,96195.36
2018-01-14T02:50:49.630Z,96187.63
2018-01-14T02:53:17.872Z,96187.77
2018-01-14T02:55:45.476Z,96194.30
2018-01-14T02:58:13.602Z,96187.96
2018-01-14T03:00:41.915Z,96184.61
2018-01-14T03:03:09.523Z,96185.56
2018-01-14T03:05:37.126Z,96186.59
2018-01-14T03:08:05.051Z,96190.87
2018-01-14T03:10:32.804Z,96183.28
2018-01-14T03:13:00.380Z,96194.83
2018-01-14T03:15:28.088Z,96195.70
2018-01-14T03:17:55.686Z,96192.41
2018-01-14T03:20:23.875Z,96197.35
2018-01-14T03:22:51.660Z,96189.51
2018-01-14T03:25:20.017Z,96195.78
2018-01-14T03:27:48.126Z,96194.59
2018-01-14T03:30:16.336Z,96197.39
2018-01-14T03:32:44.543Z,96201.59
2018-01-14T03:35:12.367Z,96205.45
2018-01-14T03:37:40.671Z,96209.00
2018-01-14T03:40:08.548Z,96206.05
2018-01-14T03:42:37.793Z,96206.45
2018-01-14T03:45:06.240Z,96201.62
2018-01-14T03:47:35.956Z,96214.09
2018-01-14T03:50:04.059Z,96209.62
2018-01-14T03:52:32.256Z,96205.16
2018-01-14T03:55:00.376Z,96210.33
2018-01-14T03:57:28.305Z,96197.15
2018-01-14T03:59:56.634Z,96207.77
2018-01-14T04:02:25.216Z,96210.72
2018-01-14T04:04:52.847Z,96205.17
2018-01-14T04:07:20.644Z,96211.61
2018-01-14T04:09:48.321Z,96199.63
2018-01-14T04:12:15.951Z,96206.09
2018-01-14T04:14:43.519Z,96202.29
2018-01-14T04:17:11.241Z,96199.45
2018-01-14T04:19:39.101Z,96203.47
2018-01-14T04:22:07.840Z,96208.61
2018-01-14T04:24:35.617Z,96210.80
2018-01-14T04:27:03.342Z,96205.07
2018-01-14T04:29:30.979Z,96208.13
2018-01-14T04:32:00.236Z,96203.00
2018-01-14T04:34:28.023Z,96200.21
2018-01-14T04:36:57.495Z,96204.93
2018-01-14T04:39:30.588Z,96215.89
2018-01-14T04:42:00.868Z,96214.00
2018-01-14T04:44:33.255Z,96217.47
2018-01-14T04:47:04.084Z,96219.95
2018-01-14T04:49:32.944Z,96212.11
2018-01-14T04:52:00.958Z,96215.59
2018-01-14T04:54:28.613Z,96211.34
2018-01-14T04:56:56.294Z,96211.03
2018-01-14T04:59:23.892Z,96216.02
2018-01-14T05:01:51.563Z,96218.15
2018-01-14T05:04:21.185Z,96236.88
2018-01-14T05:06:50.940Z,96222.30
2018-01-14T05:09:18.659Z,96227.89
2018-01-14T05:11:49.118Z,96232.67
2018-01-14T05:14:19.645Z,96237.33
2018-01-14T05:16:51.016Z,96232.08
2018-01-14T05:19:20.982Z,96226.68
2018-01-14T05:21:51.520Z,96234.50
2018-01-14T05:24:22.588Z,96242.24
2018-01-14T05:26:50.687Z,96239.77
2018-01-14T05:29:19.190Z,96237.88
2018-01-14T05:31:50.457Z,96232.95
2018-01-14T05:34:20.658Z,96243.19
2018-01-14T05:36:49.202Z,96258.19
2018-01-14T05:39:20.299Z,96241.30
2018-01-14T05:41:51.282Z,96259.83
2018-01-14T05:44:21.488Z,96257.30
2018-01-14T05:46:54.290Z,96253.64
2018-01-14T05:49:28.585Z,96254.98
2018-01-14T05:51:58.223Z,96253.72
2018-01-14T05:54:27.788Z,96260.02
2018-01-14T05:56:56.998Z,96248.39
2018-01-14T05:59:26.493Z,96269.46
2018-01-14T06:01:57.113Z,96269.98
2018-01-14T06:04:31.814Z,96264.92
2018-01-14T06:07:01.360Z,96259.34
2018-01-14T06:09:30.995Z,96267.52
2018-01-14T06:12:00.330Z,96272.67
2018-01-14T06:14:28.179Z,96273.28
2018-01-14T06:16:55.760Z,96288.06
2018-01-14T06:19:24.164Z,96280.27
2018-01-14T06:21:51.956Z,96283.27
2018-01-14T06:24:19.845Z,96281.23
2018-01-14T06:26:47.526Z,96293.51
2018-01-14T06:29:15.238Z,96293.11
2018-01-14T06:31:43.223Z,96295.42
2018-01-14T06:34:11.269Z,96287.36
2018-01-14T06:36:41.757Z,96296.49
2018-01-14T06:39:14.806Z,96296.97
2018-01-14T06:41:49.049Z,96295.77
2018-01-14T06:44:24.864Z,96299.19
2018-01-14T06:46:56.138Z,96301.39
2018-01-14T06:49:27.818Z,96306.53
2018-01-14T06:51:58.215Z,96323.48
2018-01-14T06:54:27.466Z,96306.42
2018-01-14T06:56:59.044Z,96312.40
2018-01-14T06:59:29.569Z,96319.33
2018-01-14T07:02:00.123Z,96320.58
2018-01-14T07:04:31.077Z,96324.98
2018-01-14T07:06:59.481Z,96323.09
2018-01-14T07:09:28.588Z,96336.58
2018-01-14T07:11:56.927Z,96337.66
2018-01-14T07:14:25.287Z,96331.74
2018-01-14T07:16:54.736Z,96338.73
2018-01-14T07:19:29.288Z,96347.44
2018-01-14T07:21:59.964Z,96334.86
2018-01-14T07:24:29.524Z,96343.36
2018-01-14T07:27:00.048Z,96337.08
2018-01-14T07:29:30.330Z,96351.20
2018-01-14T07:32:01.067Z,96337.16
2018-01-14T07:34:31.087Z,96348.55
2018-01-14T07:36:59.636Z,96352.84
2018-01-14T07:39:31.503Z,96351.11
2018-01-14T07:42:00.881Z,96344.08
2018-01-14T07:44:29.230Z,96341.36
2018-01-14T07:47:00.574Z,96347.44
2018-01-14T07:49:31.085Z,96318.14
2018-01-14T07:52:01.046Z,96352.27
2018-01-14T07:54:39.352Z,96343.61
2018-01-14T07:57:08.026Z,96349.73
2018-01-14T07:59:38.046Z,96356.59
2018-01-14T08:02:06.016Z,96346.26
2018-01-14T08:04:35.371Z,96344.89
2018-01-14T08:07:05.516Z,96344.28
2018-01-14T08:09:35.671Z,96333.43
2018-01-14T08:12:07.070Z,96340.66
2018-01-14T08:14:36.494Z,96334.19
2018-01-14T08:17:12.495Z,96343.23
2018-01-14T08:19:41.916Z,96332.95
2018-01-14T08:22:13.837Z,96345.80
2018-01-14T08:24:44.717Z,96338.11
2018-01-14T08:27:15.799Z,96348.25
2018-01-14T08:29:48.354Z,96351.26
2018-01-14T08:32:17.291Z,96354.55
2018-01-14T08:34:47.866Z,96357.83
2018-01-14T08:37:16.805Z,96375.31
2018-01-14T08:39:46.347Z,96352.64
2018-01-14T08:42:18.552Z,96373.16
2018-01-14T08:44:47.957Z,96382.65
2018-01-14T08:47:19.679Z,96297.41
2018-01-14T08:49:53.294Z,96371.24
2018-01-14T08:54:59.443Z,96377.73
2018-01-14T08:57:32.273Z,96373.11
2018-01-14T09:00:10.463Z,96372.37
2018-01-14T09:02:39.332Z,96362.71
2018-01-14T09:05:08.200Z,96357.95
2018-01-14T09:07:35.855Z,96361.83
2018-01-14T09:10:03.528Z,96356.42
2018-01-14T09:12:31.901Z,96363.41
2018-01-14T09:14:59.672Z,96367.02
2018-01-14T09:17:27.271Z,96363.98
2018-01-14T09:19:54.872Z,96358.05
2018-01-14T09:22:22.521Z,96363.64
2018-01-14T09:24:50.071Z,96355.06
2018-01-14T09:27:18.653Z,96345.89
2018-01-14T09:29:46.373Z,96360.78
2018-01-14T09:32:14.064Z,96365.14
2018-01-14T09:34:41.664Z,96369.20
2018-01-14T09:37:10.156Z,96366.03
2018-01-14T09:39:37.875Z,96359.79
2018-01-14T09:42:06.201Z,96349.70
2018-01-14T09:44:33.904Z,96346.09
2018-01-14T09:47:01.585Z,96342.39
2018-01-14T09:49:29.895Z,96333.47
2018-01-14T09:51:57.545Z,96337.44
2018-01-14T09:54:25.247Z,96342.62
2018-01-14T09:56:53.784Z,96337.95
2018-01-14T09:59:22.030Z,96308.08
2018-01-14T10:01:49.764Z,96337.33
2018-01-14T10:04:17.396Z,96351.35
2018-01-14T10:06:45.034Z,96336.04
2018-01-14T10:09:12.847Z,96344.19
2018-01-14T10:11:40.427Z,96330.53
2018-01-14T10:14:08.102Z,96327.61
2018-01-14T10:16:36.593Z,96328.36
2018-01-14T10:19:04.357Z,96315.88
2018-01-14T10:21:31.936Z,96312.44
2018-01-14T10:23:59.713Z,96307.84
2018-01-14T10:26:27.293Z,96318.16
2018-01-14T10:28:54.869Z,96317.05
2018-01-14T10:31:22.821Z,96319.53
2018-01-14T10:33:51.133Z,96326.94
2018-01-14T10:36:19.669Z,96325.78
2018-01-14T10:38:48.253Z,96311.25
2018-01-14T10:41:15.906Z,96310.44
2018-01-14T10:43:43.441Z,96310.61
2018-01-14T10:46:11.144Z,96305.20
2018-01-14T10:48:38.724Z,96300.62
2018-01-14T10:51:06.301Z,96302.80
2018-01-14T10:53:34.019Z,96319.73
2018-01-14T10:56:01.633Z,96312.50
2018-01-14T10:58:29.380Z,96291.27
2018-01-14T11:00:58.962Z,96299.55
2018-01-14T11:03:26.516Z,96295.14
2018-01-14T11:05:54.117Z,96293.22
2018-01-14T11:08:21.857Z,96293.06
2018-01-14T11:10:49.649Z,96295.23
2018-01-14T11:13:17.207Z,96309.41
2018-01-14T11:15:44.907Z,96285.31
2018-01-14T11:18:12.487Z,96272.00
2018-01-14T11:20:40.499Z,96289.91
2018-01-14T11:23:08.214Z,96288.87
2018-01-14T11:25:35.755Z,96279.06
2018-01-14T11:28:03.370Z,96287.25
2018-01-14T11:30:31.073Z,96296.02
2018-01-14T11:32:58.617Z,96280.64
2018-01-14T11:35:26.746Z,96292.42
2018-01-14T11:37:54.420Z,96280.94
2018-01-14T11:40:21.981Z,96273.69
2018-01-14T11:42:49.609Z,96282.61
2018-01-14T11:45:17.432Z,96267.03
2018-01-14T11:47:45.089Z,96280.34
2018-01-14T11:50:12.920Z,96287.83
2018-01-14T11:52:41.409Z,96274.64
2018-01-14T11:55:09.068Z,96270.68
2018-01-14T11:57:36.818Z,96272.38
2018-01-14T12:00:08.419Z,96272.89
2018-01-14T12:02:36.471Z,96284.38
2018-01-14T12:05:04.017Z,96290.88
2018-01-14T12:07:31.921Z,96269.56
2018-01-14T12:09:59.501Z,96275.94
2018-01-14T12:12:29.204Z,96282.45
2018-01-14T12:14:56.923Z,96266.77
2018-01-14T12:17:28.623Z,96283.85
2018-01-14T12:19:56.317Z,96288.59
2018-01-14T12:22:23.948Z,96286.56
2018-01-14T12:24:51.864Z,96270.40
2018-01-14T12:27:19.974Z,96274.66
2018-01-14T12:29:47.549Z,96276.26
2018-01-14T12:32:15.211Z,96283.59
2018-01-14T12:34:42.795Z,96277.05
2018-01-14T12:37:10.377Z,96292.13
2018-01-14T12:39:38.046Z,96282.31
2018-01-14T12:42:05.616Z,96271.81
2018-01-14T12:44:33.465Z,96278.52
2018-01-14T12:47:01.235Z,96298.02
2018-01-14T12:49:28.796Z,96273.16
2018-01-14T12:51:56.439Z,96266.36
2018-01-14T12:54:24.948Z,96269.27
2018-01-14T12:56:52.540Z,96284.09
2018-01-14T12:59:21.080Z,96281.20
2018-01-14T13:01:48.780Z,96257.29
2018-01-14T13:04:16.380Z,96276.52
2018-01-14T13:06:44.562Z,96288.00
2018-01-14T13:09:12.275Z,96289.99
2018-01-14T13:11:39.874Z,96290.45
2018-01-14T13:14:07.585Z,96290.14
2018-01-14T13:16:35.318Z,96288.80
2018-01-14T13:19:02.920Z,96291.89
2018-01-14T13:21:31.222Z,96294.05
2018-01-14T13:23:59.313Z,96296.20
2018-01-14T13:26:26.944Z,96288.64
2018-01-14T13:28:55.106Z,96304.05
2018-01-14T13:31:22.798Z,96308.84
2018-01-14T13:33:50.446Z,96315.46
2018-01-14T13:36:17.998Z,96295.47
2018-01-14T13:38:45.756Z,96304.86
2018-01-14T13:41:13.353Z,96295.70
2018-01-14T13:43:40.997Z,96311.66
2018-01-14T13:46:08.704Z,96306.22
2018-01-14T13:48:36.288Z,96308.48
2018-01-14T13:51:04.129Z,96312.22
2018-01-14T13:53:31.931Z,96310.67
2018-01-14T13:55:59.499Z,96312.02
2018-01-14T13:58:27.307Z,96309.81
2018-01-14T14:00:55.013Z,96303.95
2018-01-14T14:03:23.533Z,96310.64
2018-01-14T14:05:51.324Z,96308.20
2018-01-14T14:08:19.443Z,96309.97
2018-01-14T14:10:48.080Z,96316.12
2018-01-14T14:13:15.739Z,96312.43
2018-01-14T14:15:43.959Z,96303.45
2018-01-14T14:18:12.426Z,96303.03
2018-01-14T14:20:40.874Z,96305.08
2018-01-14T14:23:08.596Z,96307.27
2018-01-14T14:25:36.995Z,96288.44
2018-01-14T14:28:04.713Z,96297.17
2018-01-14T14:30:32.770Z,96285.30
2018-01-14T14:33:00.462Z,96296.77
2018-01-14T14:35:28.024Z,96279.89
2018-01-14T14:37:55.878Z,96266.61
2018-01-14T14:40:23.723Z,96296.63
2018-01-14T14:42:51.478Z,96294.61
2018-01-14T14:45:19.199Z,96299.13
2018-01-14T14:47:47.587Z,96277.31
2018-01-14T14:50:15.506Z,96281.36
2018-01-14T14:52:49.561Z,96287.40
2018-01-14T14:58:44.977Z,96292.14
2018-01-14T15:01:13.010Z,96284.14
2018-01-14T15:03:40.745Z,96287.66
2018-01-14T15:06:08.433Z,96277.18
2018-01-14T15:08:36.204Z,96270.80
2018-01-14T15:11:03.962Z,96295.14
2018-01-14T15:13:31.686Z,96301.10
2018-01-14T15:15:59.520Z,96284.94
2018-01-14T15:18:27.150Z,96286.92
2018-01-14T15:20:54.795Z,96277.24
2018-01-14T15:23:22.740Z,96297.39
2018-01-14T15:25:50.646Z,96288.95
2018-01-14T15:28:18.555Z,96277.78
2018-01-14T15:30:47.573Z,96296.15
2018-01-14T15:33:19.276Z,96292.92
2018-01-14T15:35:48.545Z,96308.05
2018-01-14T15:38:16.327Z,96290.48
2018-01-14T15:40:48.034Z,96306.27
2018-01-14T15:43:15.950Z,96313.27
2018-01-14T15:45:45.505Z,96319.52
2018-01-14T15:48:13.381Z,96318.80
2018-01-14T15:50:41.341Z,96311.72
2018-01-14T15:53:09.283Z,96308.53
2018-01-14T15:55:36.958Z,96307.40
2018-01-14T15:58:05.010Z,96303.06
2018-01-14T16:00:32.862Z,96292.81
2018-01-14T16:03:02.546Z,96304.70
2018-01-14T16:05:30.481Z,96303.12
2018-01-14T16:07:58.320Z,96303.34
2018-01-14T16:10:26.696Z,96312.02
2018-01-14T16:12:54.424Z,96316.29
2018-01-14T16:15:23.383Z,96336.86
2018-01-14T16:17:51.096Z,96322.30
2018-01-14T16:20:19.780Z,96329.72
2018-01-14T16:22:48.801Z,96308.00
2018-01-14T16:25:19.815Z,96326.91
2018-01-14T16:27:49.157Z,96315.95
2018-01-14T16:30:17.649Z,96327.97
2018-01-14T16:32:48.008Z,96321.85
2018-01-14T16:35:16.701Z,96322.83
2018-01-14T16:37:44.574Z,96335.40
2018-01-14T16:40:12.306Z,96326.16
2018-01-14T16:42:40.059Z,96321.34
2018-01-14T16:45:09.113Z,96321.20
2018-01-14T16:47:37.608Z,96323.72
2018-01-14T16:50:05.454Z,96328.30
2018-01-14T16:52:33.917Z,96314.06
2018-01-14T16:55:01.882Z,96316.78
2018-01-14T16:57:38.771Z,96328.13
2018-01-14T17:00:14.712Z,96332.94
2018-01-14T17:02:42.992Z,96333.92
2018-01-14T17:05:12.226Z,96341.73
2018-01-14T17:07:40.118Z,96315.79
2018-01-14T17:10:08.857Z,96324.59
2018-01-14T17:12:36.541Z,96308.51
2018-01-14T17:15:04.956Z,96317.39
2018-01-14T17:17:33.633Z,96330.45
2018-01-14T17:20:02.475Z,96336.72
2018-01-14T17:22:31.095Z,96348.76
2018-01-14T17:25:00.566Z,96358.95
2018-01-14T17:27:28.505Z,96350.55
2018-01-14T17:29:56.222Z,96341.98
2018-01-14T17:32:24.040Z,96343.92
2018-01-14T17:34:52.419Z,96352.03
2018-01-14T17:37:20.300Z,96365.02
2018-01-14T17:39:47.977Z,96354.47
2018-01-14T17:42:17.947Z,96350.64
2018-01-14T17:44:45.610Z,96343.20
2018-01-14T17:47:14.276Z,96340.52
2018-01-14T17:49:42.927Z,96347.75
2018-01-14T17:52:11.605Z,96351.41
2018-01-14T17:54:43.880Z,96353.14
2018-01-14T17:57:11.811Z,96333.94
2018-01-14T17:59:40.588Z,96342.69
2018-01-14T18:02:08.387Z,96348.50
2018-01-14T18:04:36.691Z,96351.20
2018-01-14T18:07:04.322Z,96360.61
2018-01-14T18:09:32.007Z,96343.15
2018-01-14T18:11:59.603Z,96340.86
2018-01-14T18:14:27.163Z,96340.52
2018-01-14T18:19:59.714Z,96349.93
2018-01-14T18:22:27.401Z,96372.03
2018-01-14T18:24:55.014Z,96348.16
2018-01-14T18:27:22.694Z,96347.78
2018-01-14T18:29:50.414Z,96367.16
2018-01-14T18:32:18.283Z,96351.62
2018-01-14T18:34:45.801Z,96365.11
2018-01-14T18:37:13.449Z,96382.84
2018-01-14T18:39:41.232Z,96367.76
2018-01-14T18:42:08.898Z,96377.84
2018-01-14T18:44:37.187Z,96357.68
2018-01-14T18:47:04.964Z,96371.73
2018-01-14T18:49:32.686Z,96371.67
2018-01-14T18:52:00.345Z,96353.55
2018-01-14T18:54:28.637Z,96371.09
2018-01-14T18:56:56.699Z,96365.09
2018-01-14T18:59:25.188Z,96346.67
2018-01-14T19:01:53.361Z,96354.50
2018-01-14T19:04:22.188Z,96350.84
2018-01-14T19:06:50.688Z,96357.22
2018-01-14T19:09:19.321Z,96373.58
2018-01-14T19:11:48.591Z,96358.09
2018-01-14T19:14:16.214Z,96358.14
2018-01-14T19:16:44.064Z,96359.00
2018-01-14T19:19:12.544Z,96351.45
2018-01-14T19:21:40.484Z,96346.17
2018-01-14T19:24:08.274Z,96351.96
2018-01-14T19:26:35.917Z,96346.25
2018-01-14T19:29:04.792Z,96347.06
2018-01-14T19:31:33.616Z,96354.58
2018-01-14T19:34:01.347Z,96373.47
2018-01-14T19:36:28.950Z,96352.69
2018-01-14T19:38:56.658Z,96360.79
2018-01-14T19:41:24.956Z,96367.66
2018-01-14T19:43:52.584Z,96381.09
2018-01-14T19:46:20.993Z,96359.42
2018-01-14T19:48:48.674Z,96364.45
2018-01-14T19:51:17.495Z,96362.26
2018-01-14T19:53:45.892Z,96365.27
2018-01-14T19:56:13.452Z,96381.07
2018-01-14T19:58:40.995Z,96376.58
2018-01-14T20:01:09.779Z,96375.48
2018-01-14T20:03:37.445Z,96399.25
2018-01-14T20:06:06.062Z,96368.97
2018-01-14T20:08:34.554Z,96379.77
2018-01-14T20:11:02.185Z,96392.55
2018-01-14T20:13:29.753Z,96379.63
2018-01-14T20:15:57.497Z,96394.04
2018-01-14T20:18:25.698Z,96385.14
2018-01-14T20:20:54.212Z,96382.83
2018-01-14T20:23:22.142Z,96394.53
2018-01-14T20:25:49.783Z,96378.97
2018-01-14T20:28:17.400Z,96374.16
2018-01-14T20:30:45.211Z,96381.50
2018-01-14T20:33:12.859Z,96390.41
2018-01-14T20:35:40.470Z,96390.15
2018-01-14T20:38:08.387Z,96367.53
2018-01-14T20:40:36.062Z,96395.66
2018-01-14T20:43:03.774Z,96412.38
2018-01-14T20:45:32.528Z,96404.98
2018-01-14T20:48:00.310Z,96403.23
2018-01-14T20:50:28.037Z,96406.02
2018-01-14T20:52:55.959Z,96419.53
2018-01-14T20:55:24.447Z,96399.39
2018-01-14T20:57:52.310Z,96419.13
2018-01-14T21:00:20.667Z,96409.86
2018-01-14T21:02:48.333Z,96404.30
2018-01-14T21:05:16.727Z,96406.48
2018-01-14T21:07:45.233Z,96415.16
2018-01-14T21:10:13.046Z,96402.10
2018-01-14T21:12:41.021Z,96413.39
2018-01-14T21:15:09.730Z,96392.45
2018-01-14T21:17:37.680Z,96393.77
2018-01-14T21:20:05.426Z,96400.95
2018-01-14T21:22:34.841Z,96382.30
2018-01-14T21:25:16.742Z,96380.24
2018-01-14T21:27:45.833Z,96373.77
2018-01-14T21:30:13.710Z,96379.06
2018-01-14T21:32:41.447Z,96386.17
2018-01-14T21:35:09.233Z,96374.14
2018-01-14T21:37:37.928Z,96376.39
2018-01-14T21:40:06.681Z,96362.97
2018-01-14T21:42:34.753Z,96358.41
2018-01-14T21:45:03.452Z,96375.20
2018-01-14T21:47:32.744Z,96377.47
2018-01-14T21:50:00.378Z,96361.98
2018-01-14T21:52:28.190Z,96377.41
2018-01-14T21:54:56.730Z,96381.09
2018-01-14T21:57:24.385Z,96386.28
2018-01-14T21:59:53.144Z,96389.31
2018-01-14T22:02:21.030Z,96390.91
2018-01-14T22:04:48.750Z,96399.01
2018-01-14T22:07:16.600Z,96386.27
2018-01-14T22:09:44.324Z,96391.55
2018-01-14T22:12:12.217Z,96395.34
2018-01-14T22:14:40.702Z,96396.17
2018-01-14T22:31:31.054Z,96394.31
2018-01-14T22:33:58.674Z,96402.91
2018-01-14T22:36:26.353Z,96388.17
2018-01-14T22:38:54.037Z,96393.12
2018-01-14T22:41:21.605Z,96382.39
2018-01-14T22:43:49.520Z,96389.98
2018-01-14T22:46:17.784Z,96384.11
2018-01-14T22:48:45.543Z,96377.81
2018-01-14T22:51:14.077Z,96364.06
2018-01-14T22:53:42.066Z,96372.21
2018-01-14T22:56:10.544Z,96341.09
2018-01-14T22:58:38.797Z,96341.83
2018-01-14T23:01:07.334Z,96332.42
2018-01-14T23:03:35.148Z,96340.27
2018-01-14T23:06:03.274Z,96346.53
2018-01-14T23:08:30.985Z,96345.38
2018-01-14T23:10:59.285Z,96342.23
2018-01-14T23:13:26.880Z,96348.02
2018-01-14T23:15:54.581Z,96355.61
2018-01-14T23:18:22.870Z,96359.13
2018-01-14T23:20:50.520Z,96361.64
2018-01-14T23:23:18.263Z,96349.16
2018-01-14T23:25:45.979Z,96349.13
2018-01-14T23:28:14.849Z,96330.26
2018-01-14T23:30:42.561Z,96360.97
2018-01-14T23:33:10.235Z,96359.44
2018-01-14T23:35:37.838Z,96345.81
2018-01-14T23:38:05.586Z,96342.21
2018-01-14T23:40:33.374Z,96316.83
2018-01-14T23:43:01.151Z,96344.89
2018-01-14T23:45:28.946Z,96318.86
2018-01-14T23:47:57.278Z,96324.34
2018-01-14T23:50:25.729Z,96338.30
2018-01-14T23:52:53.448Z,96332.17
2018-01-14T23:55:21.088Z,96340.28
2018-01-14T23:57:50.053Z,96320.26
